Weather History for KAQP - September, 2011

Change the Weather History Date:

Tuesday, September 13, 2011

  Actual Average Record
Temperature  
Mean Temperature 56 °F -  
Max Temperature 69 °F 72 °F 87 °F (1998)
Min Temperature 42 °F 49 °F 37 °F (2014)
Degree Days  
Heating Degree Days 10    
Growing Degree Days 6 (Base 50)    
Moisture  
Dew Point 41 °F    
Average Humidity 61    
Maximum Humidity 100    
Minimum Humidity 23    
Precipitation  
Precipitation 0.00 in - - ()
Sea Level Pressure  
Sea Level Pressure 30.06 in    
Wind  
Wind Speed 7 mph (WNW)    
Max Wind Speed 20 mph    
Max Gust Speed 22 mph    
Visibility 10 miles    
Events      
Averages and records for this station are not official NWS values.
T = Trace of Precipitation, MM = Missing Value Source: NWS Daily Summary

Daily Weather History Graph

Daily Weather History Graph

Search for Another Location

Airport or City:

Trip Planner

Search our weather history database for the weather conditions in past years. The results will help you decide how hot, cold, wet, or windy it might be!

Date:

Astronomy

Sep. 13, 2011 Rise Set
Actual Time 6:59 AM CDT 7:39 PM CDT
Civil Twilight 6:30 AM CDT 8:08 PM CDT
Nautical Twilight 5:54 AM CDT 8:44 PM CDT
Astronomical Twilight 5:18 AM CDT 9:20 PM CDT
Moon 7:47 PM CDT (9/13) 8:21 AM CDT (9/13)
Length of Visible Light 13h 38m
Length of Day
12h 39m
Full, 98% of the Moon is Illuminated
Sep 13
Full
Sep 20
Last Quarter
Sep 27
New
Oct 3
First Quarter
Oct 11
Full

Hourly Weather History & Observations

Time (CDT) Temp. Windchill Dew Point Humidity Pressure Visibility Wind Dir Wind Speed Gust Speed Precip Events Conditions
12:15 AM 51.8 °F - 44.6 °F 76% 30.01 in 10.0 mi NW 6.9 mph - N/A   Clear
12:35 AM 51.8 °F - 44.6 °F 76% 30.01 in 10.0 mi NNW 8.1 mph - N/A   Clear
12:54 AM 51.8 °F - 44.6 °F 76% 30.02 in 10.0 mi NW 5.8 mph - N/A   Clear
1:14 AM 51.8 °F - 44.6 °F 76% 30.02 in 10.0 mi NNW 5.8 mph - N/A   Clear
1:35 AM 50.0 °F - 44.6 °F 82% 30.02 in 10.0 mi NW 4.6 mph - N/A   Clear
1:55 AM 51.8 °F - 44.6 °F 76% 30.02 in 10.0 mi NNW 8.1 mph - N/A   Clear
2:15 AM 50.0 °F - 44.6 °F 82% 30.03 in 10.0 mi NW 6.9 mph - N/A   Clear
2:54 AM 48.2 °F - 44.6 °F 87% 30.03 in 10.0 mi NW 5.8 mph - N/A   Clear
3:15 AM 48.2 °F - 42.8 °F 82% 30.03 in 10.0 mi NW 4.6 mph - N/A   Clear
3:34 AM 46.4 °F 44.3 °F 42.8 °F 87% 30.04 in 10.0 mi NW 4.6 mph - N/A   Clear
4:14 AM 46.4 °F 44.3 °F 42.8 °F 87% 30.05 in 10.0 mi NW 4.6 mph - N/A   Clear
4:34 AM 46.4 °F 45.2 °F 42.8 °F 87% 30.05 in 10.0 mi NW 3.5 mph - N/A   Clear
4:54 AM 46.4 °F 43.5 °F 42.8 °F 87% 30.05 in 10.0 mi NW 5.8 mph - N/A   Clear
5:14 AM 46.4 °F 42.9 °F 42.8 °F 87% 30.06 in 10.0 mi NW 6.9 mph - N/A   Clear
5:34 AM 46.4 °F - 42.8 °F 87% 30.06 in 10.0 mi Calm Calm - N/A   Clear
5:55 AM 44.6 °F - 42.8 °F 93% 30.06 in 10.0 mi Calm Calm - N/A   Clear
6:14 AM 44.6 °F - 42.8 °F 93% 30.06 in 10.0 mi Calm Calm - N/A   Clear
6:34 AM 42.8 °F - 42.8 °F 100% 30.06 in 10.0 mi Calm Calm - N/A   Clear
6:54 AM 42.8 °F - 42.8 °F 100% 30.06 in 10.0 mi Calm Calm - N/A   Clear
7:14 AM 42.8 °F 40.1 °F 42.8 °F 100% 30.07 in 10.0 mi West 4.6 mph - N/A   Clear
7:34 AM 44.6 °F 42.2 °F 42.8 °F 93% 30.07 in 10.0 mi West 4.6 mph - N/A   Clear
7:54 AM 44.6 °F 43.1 °F 44.6 °F 100% 30.07 in 10.0 mi WSW 3.5 mph - N/A   Clear
8:14 AM 48.2 °F - 46.4 °F 93% 30.08 in 10.0 mi West 3.5 mph - N/A   Clear
8:34 AM 50.0 °F - 46.4 °F 87% 30.08 in 10.0 mi West 3.5 mph - N/A   Clear
8:54 AM 51.8 °F - 46.4 °F 82% 30.08 in 10.0 mi West 3.5 mph - N/A   Clear
9:15 AM 53.6 °F - 48.2 °F 82% 30.08 in 10.0 mi WSW 3.5 mph - N/A   Clear
10:14 AM 60.8 °F - 46.4 °F 59% 30.09 in 10.0 mi West 6.9 mph - N/A   Clear
10:55 AM 62.6 °F - 44.6 °F 52% 30.09 in 10.0 mi WSW 8.1 mph - N/A   Clear
11:14 AM 62.6 °F - 42.8 °F 48% 30.09 in 7.0 mi West 8.1 mph - N/A   Clear
11:34 AM 62.6 °F - 41.0 °F 45% 30.08 in 10.0 mi NW 5.8 mph - N/A   Scattered Clouds
11:54 AM 64.4 °F - 39.2 °F 40% 30.08 in 10.0 mi WNW 9.2 mph - N/A   Scattered Clouds
12:15 PM 64.4 °F - 39.2 °F 40% 30.07 in 10.0 mi West 8.1 mph 11.5 mph N/A   Scattered Clouds
12:34 PM 66.2 °F - 37.4 °F 35% 30.06 in 10.0 mi West 6.9 mph - N/A   Scattered Clouds
12:54 PM 66.2 °F - 37.4 °F 35% 30.06 in 10.0 mi NW 9.2 mph 16.1 mph N/A   Clear
1:15 PM 66.2 °F - 35.6 °F 32% 30.05 in 10.0 mi NW 9.2 mph - N/A   Clear
1:34 PM 66.2 °F - 33.8 °F 30% 30.05 in 10.0 mi WNW 9.2 mph - N/A   Clear
1:56 PM 68.0 °F - 35.6 °F 30% 30.05 in 10.0 mi WNW 10.4 mph - N/A   Clear
2:15 PM 68.0 °F - 33.8 °F 28% 30.04 in 10.0 mi West 8.1 mph - N/A   Clear
2:34 PM 69.8 °F - 33.8 °F 27% 30.04 in 10.0 mi WNW 9.2 mph 17.3 mph N/A   Clear
2:54 PM 69.8 °F - 33.8 °F 27% 30.04 in 10.0 mi WNW 13.8 mph 20.7 mph N/A   Scattered Clouds
3:14 PM 69.8 °F - 33.8 °F 27% 30.04 in 10.0 mi West 16.1 mph 20.7 mph N/A   Scattered Clouds
3:34 PM 69.8 °F - 32.0 °F 25% 30.04 in 10.0 mi WNW 13.8 mph - N/A   Scattered Clouds
3:55 PM 69.8 °F - 30.2 °F 23% 30.04 in 10.0 mi WNW 11.5 mph 18.4 mph N/A   Clear
4:14 PM 69.8 °F - 33.8 °F 27% 30.04 in 10.0 mi WNW 11.5 mph 21.9 mph N/A   Clear
4:34 PM 68.0 °F - 33.8 °F 28% 30.04 in 10.0 mi WNW 11.5 mph - N/A   Scattered Clouds
5:14 PM 68.0 °F - 37.4 °F 33% 30.03 in 10.0 mi WNW 13.8 mph 18.4 mph N/A   Clear
5:34 PM 66.2 °F - 39.2 °F 37% 30.03 in 10.0 mi WNW 9.2 mph - N/A   Clear
5:55 PM 66.2 °F - 37.4 °F 35% 30.03 in 10.0 mi West 11.5 mph 16.1 mph N/A   Clear
6:15 PM 68.0 °F - 37.4 °F 33% 30.02 in 10.0 mi West 11.5 mph - N/A   Clear
6:34 PM 66.2 °F - 41.0 °F 40% 30.02 in 10.0 mi West 8.1 mph - N/A   Clear
6:55 PM 64.4 °F - 42.8 °F 45% 30.02 in 10.0 mi West 8.1 mph - N/A   Clear
7:34 PM 60.8 °F - 46.4 °F 59% 30.02 in 10.0 mi West 6.9 mph - N/A   Scattered Clouds
7:54 PM 60.8 °F - 46.4 °F 59% 30.02 in 10.0 mi West 8.1 mph - N/A   Scattered Clouds
8:15 PM 57.2 °F - 46.4 °F 67% 30.03 in 10.0 mi West 6.9 mph - N/A   Clear
8:34 PM 55.4 °F - 46.4 °F 72% 30.04 in 10.0 mi WNW 6.9 mph - N/A   Scattered Clouds
8:54 PM 60.8 °F - 42.8 °F 52% 30.05 in 10.0 mi NNW 12.7 mph - N/A   Clear
9:14 PM 57.2 °F - 42.8 °F 59% 30.06 in 10.0 mi North 9.2 mph - N/A   Clear
9:34 PM 57.2 °F - 42.8 °F 59% 30.07 in 10.0 mi North 9.2 mph - N/A   Clear
9:54 PM 57.2 °F - 41.0 °F 55% 30.08 in 10.0 mi North 13.8 mph 17.3 mph N/A   Clear
10:14 PM 55.4 °F - 41.0 °F 58% 30.09 in 10.0 mi North 13.8 mph - N/A   Clear
10:35 PM 55.4 °F - 41.0 °F 58% 30.10 in 10.0 mi North 15.0 mph 19.6 mph N/A   Clear
10:54 PM 55.4 °F - 41.0 °F 58% 30.12 in 10.0 mi North 12.7 mph 18.4 mph N/A   Clear
11:14 PM 53.6 °F - 39.2 °F 58% 30.13 in 10.0 mi North 15.0 mph - N/A   Clear
11:34 PM 53.6 °F - 39.2 °F 58% 30.14 in 10.0 mi North 13.8 mph - N/A   Clear
11:54 PM 51.8 °F - 35.6 °F 54% 30.16 in 10.0 mi North 19.6 mph - N/A   Clear